sensor_id;sensor_type;location;lat;lon;timestamp;P1;durP1;ratioP1;P2;durP2;ratioP2
75342;SDS011;63936;51.006;13.764;2022-12-29T00:00:02;5;;;2;;
75342;SDS011;63936;51.006;13.764;2022-12-29T00:02:02;5;;;2;;
75342;SDS011;63936;51.006;13.764;2022-12-29T00:04:02;4;;;1;;
75342;SDS011;63936;51.006;13.764;2022-12-29T00:06:02;6;;;1;;
75342;SDS011;63936;51.006;13.764;2022-12-29T00:08:01;5;;;1;;
75342;SDS011;63936;51.006;13.764;2022-12-29T00:10:02;4;;;2;;
75342;SDS011;63936;51.006;13.764;2022-12-29T00:12:02;4;;;1;;
75342;SDS011;63936;51.006;13.764;2022-12-29T00:14:01;4;;;1;;
75342;SDS011;63936;51.006;13.764;2022-12-29T00:16:01;4;;;1;;
75342;SDS011;63936;51.006;13.764;2022-12-29T00:18:01;4;;;1;;
75342;SDS011;63936;51.006;13.764;2022-12-29T00:20:02;5;;;1;;
75342;SDS011;63936;51.006;13.764;2022-12-29T00:22:02;4;;;1;;
75342;SDS011;63936;51.006;13.764;2022-12-29T00:24:02;5;;;1;;
75342;SDS011;63936;51.006;13.764;2022-12-29T00:26:02;5;;;2;;
75342;SDS011;63936;51.006;13.764;2022-12-29T00:28:02;5;;;2;;
75342;SDS011;63936;51.006;13.764;2022-12-29T00:30:04;5;;;1;;
75342;SDS011;63936;51.006;13.764;2022-12-29T00:32:01;4;;;1;;
75342;SDS011;63936;51.006;13.764;2022-12-29T00:34:01;4;;;1;;
75342;SDS011;63936;51.006;13.764;2022-12-29T00:36:02;4;;;1;;
75342;SDS011;63936;51.006;13.764;2022-12-29T00:38:02;4;;;1;;
75342;SDS011;63936;51.006;13.764;2022-12-29T00:40:02;4;;;1;;
75342;SDS011;63936;51.006;13.764;2022-12-29T00:42:03;5;;;2;;
75342;SDS011;63936;51.006;13.764;2022-12-29T00:44:02;6;;;2;;
75342;SDS011;63936;51.006;13.764;2022-12-29T00:46:02;5;;;1;;
75342;SDS011;63936;51.006;13.764;2022-12-29T00:48:01;4;;;2;;
75342;SDS011;63936;51.006;13.764;2022-12-29T00:50:01;4;;;1;;
75342;SDS011;63936;51.006;13.764;2022-12-29T00:52:02;5;;;1;;
75342;SDS011;63936;51.006;13.764;2022-12-29T00:54:01;4;;;1;;
75342;SDS011;63936;51.006;13.764;2022-12-29T00:56:01;4;;;2;;
75342;SDS011;63936;51.006;13.764;2022-12-29T00:58:01;4;;;1;;
75342;SDS011;63936;51.006;13.764;2022-12-29T01:00:01;4;;;1;;
75342;SDS011;63936;51.006;13.764;2022-12-29T01:02:03;4;;;1;;
75342;SDS011;63936;51.006;13.764;2022-12-29T01:04:03;5;;;1;;
75342;SDS011;63936;51.006;13.764;2022-12-29T01:06:04;4;;;1;;
75342;SDS011;63936;51.006;13.764;2022-12-29T01:08:03;4;;;1;;
75342;SDS011;63936;51.006;13.764;2022-12-29T01:10:04;5;;;2;;
75342;SDS011;63936;51.006;13.764;2022-12-29T01:12:02;6;;;2;;
75342;SDS011;63936;51.006;13.764;2022-12-29T01:14:02;6;;;2;;
75342;SDS011;63936;51.006;13.764;2022-12-29T01:16:02;4;;;2;;
75342;SDS011;63936;51.006;13.764;2022-12-29T01:18:02;5;;;2;;
75342;SDS011;63936;51.006;13.764;2022-12-29T01:20:04;5;;;1;;
75342;SDS011;63936;51.006;13.764;2022-12-29T01:22:02;5;;;1;;
75342;SDS011;63936;51.006;13.764;2022-12-29T01:24:02;5;;;2;;
75342;SDS011;63936;51.006;13.764;2022-12-29T01:26:08;4;;;2;;
75342;SDS011;63936;51.006;13.764;2022-12-29T01:28:02;4;;;2;;
75342;SDS011;63936;51.006;13.764;2022-12-29T01:30:03;4;;;1;;
75342;SDS011;63936;51.006;13.764;2022-12-29T01:32:01;4;;;1;;
75342;SDS011;63936;51.006;13.764;2022-12-29T01:34:01;4;;;1;;
75342;SDS011;63936;51.006;13.764;2022-12-29T01:36:02;5;;;1;;
75342;SDS011;63936;51.006;13.764;2022-12-29T01:38:02;7;;;2;;
75342;SDS011;63936;51.006;13.764;2022-12-29T01:40:06;5;;;2;;
75342;SDS011;63936;51.006;13.764;2022-12-29T01:42:02;6;;;2;;
75342;SDS011;63936;51.006;13.764;2022-12-29T01:44:02;5;;;2;;
75342;SDS011;63936;51.006;13.764;2022-12-29T01:46:02;4;;;1;;
75342;SDS011;63936;51.006;13.764;2022-12-29T01:48:03;4;;;2;;
75342;SDS011;63936;51.006;13.764;2022-12-29T01:50:05;4;;;2;;
75342;SDS011;63936;51.006;13.764;2022-12-29T01:52:02;4;;;2;;
75342;SDS011;63936;51.006;13.764;2022-12-29T01:54:02;5;;;1;;
75342;SDS011;63936;51.006;13.764;2022-12-29T01:56:02;5;;;1;;
75342;SDS011;63936;51.006;13.764;2022-12-29T01:58:02;5;;;1;;
75342;SDS011;63936;51.006;13.764;2022-12-29T02:00:03;4;;;1;;
75342;SDS011;63936;51.006;13.764;2022-12-29T02:02:02;5;;;2;;
75342;SDS011;63936;51.006;13.764;2022-12-29T02:04:01;5;;;2;;
75342;SDS011;63936;51.006;13.764;2022-12-29T02:06:02;4;;;2;;
75342;SDS011;63936;51.006;13.764;2022-12-29T02:08:02;5;;;2;;
75342;SDS011;63936;51.006;13.764;2022-12-29T02:10:01;5;;;2;;
75342;SDS011;63936;51.006;13.764;2022-12-29T02:12:01;5;;;2;;
75342;SDS011;63936;51.006;13.764;2022-12-29T02:14:01;5;;;2;;
75342;SDS011;63936;51.006;13.764;2022-12-29T02:16:04;5;;;2;;
75342;SDS011;63936;51.006;13.764;2022-12-29T02:18:05;5;;;2;;
75342;SDS011;63936;51.006;13.764;2022-12-29T02:20:23;5;;;2;;
75342;SDS011;63936;51.006;13.764;2022-12-29T02:22:04;4;;;2;;
75342;SDS011;63936;51.006;13.764;2022-12-29T02:24:06;5;;;2;;
75342;SDS011;63936;51.006;13.764;2022-12-29T02:26:06;6;;;2;;
75342;SDS011;63936;51.006;13.764;2022-12-29T02:28:10;6;;;2;;
75342;SDS011;63936;51.006;13.764;2022-12-29T02:30:05;5;;;2;;
75342;SDS011;63936;51.006;13.764;2022-12-29T02:32:02;4;;;2;;
75342;SDS011;63936;51.006;13.764;2022-12-29T02:34:03;4;;;2;;
75342;SDS011;63936;51.006;13.764;2022-12-29T02:36:05;4;;;2;;
75342;SDS011;63936;51.006;13.764;2022-12-29T02:38:03;6;;;2;;
75342;SDS011;63936;51.006;13.764;2022-12-29T02:40:04;6;;;2;;
75342;SDS011;63936;51.006;13.764;2022-12-29T02:42:03;6;;;2;;
75342;SDS011;63936;51.006;13.764;2022-12-29T02:44:03;6;;;2;;
75342;SDS011;63936;51.006;13.764;2022-12-29T02:46:03;5;;;2;;
75342;SDS011;63936;51.006;13.764;2022-12-29T02:48:03;5;;;2;;
75342;SDS011;63936;51.006;13.764;2022-12-29T02:50:03;7;;;2;;
75342;SDS011;63936;51.006;13.764;2022-12-29T02:52:02;6;;;2;;
75342;SDS011;63936;51.006;13.764;2022-12-29T02:54:01;5;;;1;;
75342;SDS011;63936;51.006;13.764;2022-12-29T02:56:01;5;;;2;;
75342;SDS011;63936;51.006;13.764;2022-12-29T02:58:06;5;;;2;;
75342;SDS011;63936;51.006;13.764;2022-12-29T03:00:03;4;;;2;;
75342;SDS011;63936;51.006;13.764;2022-12-29T03:02:06;4;;;1;;
75342;SDS011;63936;51.006;13.764;2022-12-29T03:04:07;4;;;2;;
75342;SDS011;63936;51.006;13.764;2022-12-29T03:06:06;5;;;2;;
75342;SDS011;63936;51.006;13.764;2022-12-29T03:08:05;5;;;2;;
75342;SDS011;63936;51.006;13.764;2022-12-29T03:10:04;5;;;2;;
75342;SDS011;63936;51.006;13.764;2022-12-29T03:12:03;4;;;2;;
75342;SDS011;63936;51.006;13.764;2022-12-29T03:14:02;5;;;2;;
75342;SDS011;63936;51.006;13.764;2022-12-29T03:16:04;6;;;2;;
75342;SDS011;63936;51.006;13.764;2022-12-29T03:18:02;5;;;2;;
75342;SDS011;63936;51.006;13.764;2022-12-29T03:20:04;4;;;2;;
75342;SDS011;63936;51.006;13.764;2022-12-29T03:22:03;5;;;2;;
75342;SDS011;63936;51.006;13.764;2022-12-29T03:24:01;5;;;2;;
75342;SDS011;63936;51.006;13.764;2022-12-29T03:26:02;5;;;2;;
75342;SDS011;63936;51.006;13.764;2022-12-29T03:28:03;4;;;2;;
75342;SDS011;63936;51.006;13.764;2022-12-29T03:30:03;5;;;2;;
75342;SDS011;63936;51.006;13.764;2022-12-29T03:32:01;6;;;2;;
75342;SDS011;63936;51.006;13.764;2022-12-29T03:34:01;5;;;2;;
75342;SDS011;63936;51.006;13.764;2022-12-29T03:36:02;4;;;2;;
75342;SDS011;63936;51.006;13.764;2022-12-29T03:38:04;5;;;2;;
75342;SDS011;63936;51.006;13.764;2022-12-29T03:40:02;4;;;1;;
75342;SDS011;63936;51.006;13.764;2022-12-29T03:42:02;4;;;2;;
75342;SDS011;63936;51.006;13.764;2022-12-29T03:44:01;4;;;2;;
75342;SDS011;63936;51.006;13.764;2022-12-29T03:46:02;4;;;2;;
75342;SDS011;63936;51.006;13.764;2022-12-29T03:48:02;4;;;2;;
75342;SDS011;63936;51.006;13.764;2022-12-29T03:50:02;4;;;1;;
75342;SDS011;63936;51.006;13.764;2022-12-29T03:52:01;4;;;1;;
75342;SDS011;63936;51.006;13.764;2022-12-29T03:54:01;5;;;1;;
75342;SDS011;63936;51.006;13.764;2022-12-29T03:56:01;5;;;1;;
75342;SDS011;63936;51.006;13.764;2022-12-29T03:58:01;5;;;1;;
75342;SDS011;63936;51.006;13.764;2022-12-29T04:00:03;6;;;2;;
75342;SDS011;63936;51.006;13.764;2022-12-29T04:02:01;6;;;2;;
75342;SDS011;63936;51.006;13.764;2022-12-29T04:04:03;6;;;2;;
75342;SDS011;63936;51.006;13.764;2022-12-29T04:06:03;4;;;1;;
75342;SDS011;63936;51.006;13.764;2022-12-29T04:08:01;4;;;1;;
75342;SDS011;63936;51.006;13.764;2022-12-29T04:10:01;4;;;2;;
75342;SDS011;63936;51.006;13.764;2022-12-29T04:12:01;4;;;2;;
75342;SDS011;63936;51.006;13.764;2022-12-29T04:14:01;5;;;1;;
75342;SDS011;63936;51.006;13.764;2022-12-29T04:16:01;4;;;2;;
75342;SDS011;63936;51.006;13.764;2022-12-29T04:18:01;5;;;2;;
75342;SDS011;63936;51.006;13.764;2022-12-29T04:20:02;5;;;1;;
75342;SDS011;63936;51.006;13.764;2022-12-29T04:22:02;5;;;1;;
75342;SDS011;63936;51.006;13.764;2022-12-29T04:24:02;5;;;1;;
75342;SDS011;63936;51.006;13.764;2022-12-29T04:26:01;5;;;2;;
75342;SDS011;63936;51.006;13.764;2022-12-29T04:28:01;5;;;2;;
75342;SDS011;63936;51.006;13.764;2022-12-29T04:30:01;4;;;1;;
75342;SDS011;63936;51.006;13.764;2022-12-29T04:32:01;4;;;1;;
75342;SDS011;63936;51.006;13.764;2022-12-29T04:34:01;6;;;2;;
75342;SDS011;63936;51.006;13.764;2022-12-29T04:36:01;6;;;2;;
75342;SDS011;63936;51.006;13.764;2022-12-29T04:38:01;4;;;1;;
75342;SDS011;63936;51.006;13.764;2022-12-29T04:40:02;5;;;1;;
75342;SDS011;63936;51.006;13.764;2022-12-29T04:42:02;5;;;1;;
75342;SDS011;63936;51.006;13.764;2022-12-29T04:44:02;4;;;1;;
75342;SDS011;63936;51.006;13.764;2022-12-29T04:46:01;4;;;1;;
75342;SDS011;63936;51.006;13.764;2022-12-29T04:48:01;4;;;1;;
75342;SDS011;63936;51.006;13.764;2022-12-29T04:50:01;4;;;1;;
75342;SDS011;63936;51.006;13.764;2022-12-29T04:52:01;4;;;1;;
75342;SDS011;63936;51.006;13.764;2022-12-29T04:54:01;5;;;1;;
75342;SDS011;63936;51.006;13.764;2022-12-29T04:56:01;5;;;2;;
75342;SDS011;63936;51.006;13.764;2022-12-29T04:58:01;5;;;1;;
75342;SDS011;63936;51.006;13.764;2022-12-29T05:00:02;5;;;1;;
75342;SDS011;63936;51.006;13.764;2022-12-29T05:02:01;5;;;1;;
75342;SDS011;63936;51.006;13.764;2022-12-29T05:04:01;5;;;2;;
75342;SDS011;63936;51.006;13.764;2022-12-29T05:06:01;5;;;1;;
75342;SDS011;63936;51.006;13.764;2022-12-29T05:08:02;5;;;2;;
75342;SDS011;63936;51.006;13.764;2022-12-29T05:10:01;4;;;1;;
75342;SDS011;63936;51.006;13.764;2022-12-29T05:12:01;4;;;1;;
75342;SDS011;63936;51.006;13.764;2022-12-29T05:14:01;4;;;1;;
75342;SDS011;63936;51.006;13.764;2022-12-29T05:16:01;5;;;2;;
75342;SDS011;63936;51.006;13.764;2022-12-29T05:18:01;5;;;2;;
75342;SDS011;63936;51.006;13.764;2022-12-29T05:20:02;5;;;2;;
75342;SDS011;63936;51.006;13.764;2022-12-29T05:22:01;4;;;1;;
75342;SDS011;63936;51.006;13.764;2022-12-29T05:24:02;4;;;1;;
75342;SDS011;63936;51.006;13.764;2022-12-29T05:26:02;5;;;1;;
75342;SDS011;63936;51.006;13.764;2022-12-29T05:28:02;5;;;1;;
75342;SDS011;63936;51.006;13.764;2022-12-29T05:30:02;4;;;2;;
75342;SDS011;63936;51.006;13.764;2022-12-29T05:32:01;4;;;2;;
75342;SDS011;63936;51.006;13.764;2022-12-29T05:34:01;4;;;1;;
75342;SDS011;63936;51.006;13.764;2022-12-29T05:36:03;4;;;1;;
75342;SDS011;63936;51.006;13.764;2022-12-29T05:38:01;5;;;1;;
75342;SDS011;63936;51.006;13.764;2022-12-29T05:40:02;4;;;1;;
75342;SDS011;63936;51.006;13.764;2022-12-29T05:42:01;4;;;2;;
75342;SDS011;63936;51.006;13.764;2022-12-29T05:44:01;6;;;2;;
75342;SDS011;63936;51.006;13.764;2022-12-29T05:46:02;7;;;2;;
75342;SDS011;63936;51.006;13.764;2022-12-29T05:48:02;6;;;2;;
75342;SDS011;63936;51.006;13.764;2022-12-29T05:50:02;4;;;2;;
75342;SDS011;63936;51.006;13.764;2022-12-29T05:52:01;4;;;1;;
75342;SDS011;63936;51.006;13.764;2022-12-29T05:54:01;5;;;1;;
75342;SDS011;63936;51.006;13.764;2022-12-29T05:56:01;5;;;1;;
75342;SDS011;63936;51.006;13.764;2022-12-29T05:58:01;6;;;1;;
75342;SDS011;63936;51.006;13.764;2022-12-29T06:00:02;5;;;1;;
75342;SDS011;63936;51.006;13.764;2022-12-29T06:02:01;5;;;2;;
75342;SDS011;63936;51.006;13.764;2022-12-29T06:04:01;5;;;2;;
75342;SDS011;63936;51.006;13.764;2022-12-29T06:06:01;4;;;2;;
75342;SDS011;63936;51.006;13.764;2022-12-29T06:08:02;4;;;2;;
75342;SDS011;63936;51.006;13.764;2022-12-29T06:10:01;4;;;1;;
75342;SDS011;63936;51.006;13.764;2022-12-29T06:12:01;4;;;1;;
75342;SDS011;63936;51.006;13.764;2022-12-29T06:14:01;6;;;1;;
75342;SDS011;63936;51.006;13.764;2022-12-29T06:16:01;6;;;2;;
75342;SDS011;63936;51.006;13.764;2022-12-29T06:18:01;5;;;2;;
75342;SDS011;63936;51.006;13.764;2022-12-29T06:20:02;5;;;2;;
75342;SDS011;63936;51.006;13.764;2022-12-29T06:22:01;4;;;2;;
75342;SDS011;63936;51.006;13.764;2022-12-29T06:24:01;4;;;2;;
75342;SDS011;63936;51.006;13.764;2022-12-29T06:26:01;4;;;1;;
75342;SDS011;63936;51.006;13.764;2022-12-29T06:28:02;4;;;1;;
75342;SDS011;63936;51.006;13.764;2022-12-29T06:30:02;4;;;2;;
75342;SDS011;63936;51.006;13.764;2022-12-29T06:32:02;5;;;2;;
75342;SDS011;63936;51.006;13.764;2022-12-29T06:34:02;6;;;2;;
75342;SDS011;63936;51.006;13.764;2022-12-29T06:36:01;6;;;2;;
75342;SDS011;63936;51.006;13.764;2022-12-29T06:38:01;4;;;2;;
75342;SDS011;63936;51.006;13.764;2022-12-29T06:40:03;4;;;1;;
75342;SDS011;63936;51.006;13.764;2022-12-29T06:42:03;5;;;2;;
75342;SDS011;63936;51.006;13.764;2022-12-29T06:44:02;5;;;2;;
75342;SDS011;63936;51.006;13.764;2022-12-29T06:46:02;5;;;2;;
75342;SDS011;63936;51.006;13.764;2022-12-29T06:48:03;6;;;2;;
75342;SDS011;63936;51.006;13.764;2022-12-29T06:50:02;5;;;2;;
75342;SDS011;63936;51.006;13.764;2022-12-29T06:52:02;5;;;2;;
75342;SDS011;63936;51.006;13.764;2022-12-29T06:54:02;5;;;1;;
75342;SDS011;63936;51.006;13.764;2022-12-29T06:56:01;5;;;2;;
75342;SDS011;63936;51.006;13.764;2022-12-29T06:58:02;5;;;2;;
75342;SDS011;63936;51.006;13.764;2022-12-29T07:00:02;5;;;2;;
75342;SDS011;63936;51.006;13.764;2022-12-29T07:02:01;4;;;2;;
75342;SDS011;63936;51.006;13.764;2022-12-29T07:04:02;5;;;2;;
75342;SDS011;63936;51.006;13.764;2022-12-29T07:06:01;4;;;2;;
75342;SDS011;63936;51.006;13.764;2022-12-29T07:08:01;5;;;1;;
75342;SDS011;63936;51.006;13.764;2022-12-29T07:10:03;4;;;2;;
75342;SDS011;63936;51.006;13.764;2022-12-29T07:12:02;5;;;1;;
75342;SDS011;63936;51.006;13.764;2022-12-29T07:14:01;4;;;2;;
75342;SDS011;63936;51.006;13.764;2022-12-29T07:16:04;5;;;2;;
75342;SDS011;63936;51.006;13.764;2022-12-29T07:18:01;5;;;1;;
75342;SDS011;63936;51.006;13.764;2022-12-29T07:20:02;5;;;2;;
75342;SDS011;63936;51.006;13.764;2022-12-29T07:22:02;5;;;2;;
75342;SDS011;63936;51.006;13.764;2022-12-29T07:24:02;5;;;2;;
75342;SDS011;63936;51.006;13.764;2022-12-29T07:26:02;4;;;2;;
75342;SDS011;63936;51.006;13.764;2022-12-29T07:28:02;5;;;2;;
75342;SDS011;63936;51.006;13.764;2022-12-29T07:30:02;5;;;1;;
75342;SDS011;63936;51.006;13.764;2022-12-29T07:32:02;5;;;1;;
75342;SDS011;63936;51.006;13.764;2022-12-29T07:34:02;4;;;1;;
75342;SDS011;63936;51.006;13.764;2022-12-29T07:36:01;4;;;2;;
75342;SDS011;63936;51.006;13.764;2022-12-29T07:38:01;5;;;1;;
75342;SDS011;63936;51.006;13.764;2022-12-29T07:40:04;5;;;2;;
75342;SDS011;63936;51.006;13.764;2022-12-29T07:42:02;5;;;1;;
75342;SDS011;63936;51.006;13.764;2022-12-29T07:44:02;4;;;1;;
75342;SDS011;63936;51.006;13.764;2022-12-29T07:46:01;4;;;1;;
75342;SDS011;63936;51.006;13.764;2022-12-29T07:48:01;4;;;2;;
75342;SDS011;63936;51.006;13.764;2022-12-29T07:50:06;5;;;2;;
75342;SDS011;63936;51.006;13.764;2022-12-29T07:52:01;4;;;2;;
75342;SDS011;63936;51.006;13.764;2022-12-29T07:54:01;5;;;2;;
75342;SDS011;63936;51.006;13.764;2022-12-29T07:56:01;5;;;2;;
75342;SDS011;63936;51.006;13.764;2022-12-29T07:58:01;4;;;1;;
75342;SDS011;63936;51.006;13.764;2022-12-29T08:00:05;4;;;2;;
75342;SDS011;63936;51.006;13.764;2022-12-29T08:02:02;4;;;2;;
75342;SDS011;63936;51.006;13.764;2022-12-29T08:04:02;5;;;2;;
75342;SDS011;63936;51.006;13.764;2022-12-29T08:06:02;5;;;2;;
75342;SDS011;63936;51.006;13.764;2022-12-29T08:08:02;4;;;2;;
75342;SDS011;63936;51.006;13.764;2022-12-29T08:10:02;5;;;2;;
75342;SDS011;63936;51.006;13.764;2022-12-29T08:12:02;5;;;2;;
75342;SDS011;63936;51.006;13.764;2022-12-29T08:14:02;5;;;2;;
75342;SDS011;63936;51.006;13.764;2022-12-29T08:16:01;5;;;2;;
75342;SDS011;63936;51.006;13.764;2022-12-29T08:18:02;5;;;2;;
75342;SDS011;63936;51.006;13.764;2022-12-29T08:20:02;5;;;2;;
75342;SDS011;63936;51.006;13.764;2022-12-29T08:22:02;5;;;2;;
75342;SDS011;63936;51.006;13.764;2022-12-29T08:24:02;5;;;2;;
75342;SDS011;63936;51.006;13.764;2022-12-29T08:26:02;4;;;2;;
75342;SDS011;63936;51.006;13.764;2022-12-29T08:28:01;5;;;2;;
75342;SDS011;63936;51.006;13.764;2022-12-29T08:30:02;4;;;2;;
75342;SDS011;63936;51.006;13.764;2022-12-29T08:32:01;5;;;2;;
75342;SDS011;63936;51.006;13.764;2022-12-29T08:34:01;5;;;2;;
75342;SDS011;63936;51.006;13.764;2022-12-29T08:36:01;5;;;2;;
75342;SDS011;63936;51.006;13.764;2022-12-29T08:38:01;5;;;2;;
75342;SDS011;63936;51.006;13.764;2022-12-29T08:40:03;5;;;2;;
75342;SDS011;63936;51.006;13.764;2022-12-29T08:42:01;5;;;2;;
75342;SDS011;63936;51.006;13.764;2022-12-29T08:44:01;5;;;2;;
75342;SDS011;63936;51.006;13.764;2022-12-29T08:46:02;5;;;2;;
75342;SDS011;63936;51.006;13.764;2022-12-29T08:48:02;5;;;2;;
75342;SDS011;63936;51.006;13.764;2022-12-29T08:50:03;5;;;2;;
75342;SDS011;63936;51.006;13.764;2022-12-29T08:52:01;5;;;2;;
75342;SDS011;63936;51.006;13.764;2022-12-29T08:54:01;5;;;2;;
75342;SDS011;63936;51.006;13.764;2022-12-29T08:56:03;5;;;2;;
75342;SDS011;63936;51.006;13.764;2022-12-29T08:58:02;5;;;2;;
75342;SDS011;63936;51.006;13.764;2022-12-29T09:00:02;5;;;2;;
75342;SDS011;63936;51.006;13.764;2022-12-29T09:02:01;5;;;2;;
75342;SDS011;63936;51.006;13.764;2022-12-29T09:04:02;5;;;2;;
75342;SDS011;63936;51.006;13.764;2022-12-29T09:06:02;5;;;2;;
75342;SDS011;63936;51.006;13.764;2022-12-29T09:08:01;5;;;2;;
75342;SDS011;63936;51.006;13.764;2022-12-29T09:10:02;5;;;2;;
75342;SDS011;63936;51.006;13.764;2022-12-29T09:12:01;5;;;2;;
75342;SDS011;63936;51.006;13.764;2022-12-29T09:14:02;5;;;2;;
75342;SDS011;63936;51.006;13.764;2022-12-29T09:16:01;4;;;2;;
75342;SDS011;63936;51.006;13.764;2022-12-29T09:18:02;4;;;2;;
75342;SDS011;63936;51.006;13.764;2022-12-29T09:20:02;5;;;2;;
75342;SDS011;63936;51.006;13.764;2022-12-29T09:22:02;5;;;2;;
75342;SDS011;63936;51.006;13.764;2022-12-29T09:24:02;4;;;2;;
75342;SDS011;63936;51.006;13.764;2022-12-29T09:26:01;4;;;2;;
75342;SDS011;63936;51.006;13.764;2022-12-29T09:28:01;5;;;2;;
75342;SDS011;63936;51.006;13.764;2022-12-29T09:30:02;5;;;2;;
75342;SDS011;63936;51.006;13.764;2022-12-29T09:32:01;5;;;2;;
75342;SDS011;63936;51.006;13.764;2022-12-29T09:34:01;5;;;2;;
75342;SDS011;63936;51.006;13.764;2022-12-29T09:36:02;5;;;2;;
75342;SDS011;63936;51.006;13.764;2022-12-29T09:38:02;5;;;2;;
75342;SDS011;63936;51.006;13.764;2022-12-29T09:40:01;5;;;2;;
75342;SDS011;63936;51.006;13.764;2022-12-29T09:42:04;5;;;2;;
75342;SDS011;63936;51.006;13.764;2022-12-29T09:44:03;5;;;2;;
75342;SDS011;63936;51.006;13.764;2022-12-29T09:46:03;5;;;2;;
75342;SDS011;63936;51.006;13.764;2022-12-29T09:48:02;4;;;2;;
75342;SDS011;63936;51.006;13.764;2022-12-29T09:50:03;4;;;2;;
75342;SDS011;63936;51.006;13.764;2022-12-29T09:52:03;6;;;2;;
75342;SDS011;63936;51.006;13.764;2022-12-29T09:54:02;6;;;2;;
75342;SDS011;63936;51.006;13.764;2022-12-29T09:56:01;5;;;2;;
75342;SDS011;63936;51.006;13.764;2022-12-29T09:58:02;5;;;2;;
75342;SDS011;63936;51.006;13.764;2022-12-29T10:00:03;5;;;2;;
75342;SDS011;63936;51.006;13.764;2022-12-29T10:02:04;5;;;2;;
75342;SDS011;63936;51.006;13.764;2022-12-29T10:04:02;5;;;2;;
75342;SDS011;63936;51.006;13.764;2022-12-29T10:06:04;5;;;2;;
75342;SDS011;63936;51.006;13.764;2022-12-29T10:08:06;5;;;2;;
75342;SDS011;63936;51.006;13.764;2022-12-29T10:10:05;5;;;2;;
75342;SDS011;63936;51.006;13.764;2022-12-29T10:12:03;5;;;2;;
75342;SDS011;63936;51.006;13.764;2022-12-29T10:14:07;5;;;2;;
75342;SDS011;63936;51.006;13.764;2022-12-29T10:16:02;5;;;3;;
75342;SDS011;63936;51.006;13.764;2022-12-29T10:18:03;5;;;3;;
75342;SDS011;63936;51.006;13.764;2022-12-29T10:20:07;5;;;3;;
75342;SDS011;63936;51.006;13.764;2022-12-29T10:22:05;5;;;3;;
75342;SDS011;63936;51.006;13.764;2022-12-29T10:24:02;6;;;3;;
75342;SDS011;63936;51.006;13.764;2022-12-29T10:26:02;5;;;3;;
75342;SDS011;63936;51.006;13.764;2022-12-29T10:28:04;5;;;2;;
75342;SDS011;63936;51.006;13.764;2022-12-29T10:30:02;6;;;3;;
75342;SDS011;63936;51.006;13.764;2022-12-29T10:32:02;5;;;2;;
75342;SDS011;63936;51.006;13.764;2022-12-29T10:34:02;5;;;2;;
75342;SDS011;63936;51.006;13.764;2022-12-29T10:36:02;5;;;2;;
75342;SDS011;63936;51.006;13.764;2022-12-29T10:38:02;5;;;2;;
75342;SDS011;63936;51.006;13.764;2022-12-29T10:40:03;5;;;2;;
75342;SDS011;63936;51.006;13.764;2022-12-29T10:42:04;5;;;2;;
75342;SDS011;63936;51.006;13.764;2022-12-29T10:44:01;5;;;2;;
75342;SDS011;63936;51.006;13.764;2022-12-29T10:46:02;5;;;3;;
75342;SDS011;63936;51.006;13.764;2022-12-29T10:48:02;6;;;3;;
75342;SDS011;63936;51.006;13.764;2022-12-29T10:50:01;5;;;2;;
75342;SDS011;63936;51.006;13.764;2022-12-29T10:52:02;6;;;2;;
75342;SDS011;63936;51.006;13.764;2022-12-29T10:54:03;5;;;2;;
75342;SDS011;63936;51.006;13.764;2022-12-29T10:56:01;5;;;2;;
75342;SDS011;63936;51.006;13.764;2022-12-29T10:58:02;5;;;2;;
75342;SDS011;63936;51.006;13.764;2022-12-29T11:00:04;5;;;2;;
75342;SDS011;63936;51.006;13.764;2022-12-29T11:02:06;5;;;2;;
75342;SDS011;63936;51.006;13.764;2022-12-29T11:04:02;7;;;7;;
75342;SDS011;63936;51.006;13.764;2022-12-29T11:06:03;6;;;5;;
75342;SDS011;63936;51.006;13.764;2022-12-29T11:08:02;9;;;8;;
75342;SDS011;63936;51.006;13.764;2022-12-29T11:10:15;8;;;7;;
75342;SDS011;63936;51.006;13.764;2022-12-29T11:12:03;9;;;9;;
75342;SDS011;63936;51.006;13.764;2022-12-29T11:14:02;9;;;9;;
75342;SDS011;63936;51.006;13.764;2022-12-29T11:16:01;10;;;9;;
75342;SDS011;63936;51.006;13.764;2022-12-29T11:18:01;10;;;9;;
75342;SDS011;63936;51.006;13.764;2022-12-29T11:20:08;4;;;2;;
75342;SDS011;63936;51.006;13.764;2022-12-29T11:22:11;4;;;2;;
75342;SDS011;63936;51.006;13.764;2022-12-29T11:24:02;4;;;1;;
75342;SDS011;63936;51.006;13.764;2022-12-29T11:26:06;5;;;2;;
75342;SDS011;63936;51.006;13.764;2022-12-29T11:28:02;6;;;2;;
75342;SDS011;63936;51.006;13.764;2022-12-29T11:30:02;5;;;2;;
75342;SDS011;63936;51.006;13.764;2022-12-29T11:32:10;5;;;2;;
75342;SDS011;63936;51.006;13.764;2022-12-29T11:34:05;5;;;2;;
75342;SDS011;63936;51.006;13.764;2022-12-29T11:36:01;6;;;4;;
75342;SDS011;63936;51.006;13.764;2022-12-29T11:38:01;5;;;3;;
75342;SDS011;63936;51.006;13.764;2022-12-29T11:40:02;5;;;2;;
75342;SDS011;63936;51.006;13.764;2022-12-29T11:42:01;5;;;2;;
75342;SDS011;63936;51.006;13.764;2022-12-29T11:44:02;4;;;2;;
75342;SDS011;63936;51.006;13.764;2022-12-29T11:46:01;4;;;2;;
75342;SDS011;63936;51.006;13.764;2022-12-29T11:48:05;4;;;2;;
75342;SDS011;63936;51.006;13.764;2022-12-29T11:50:03;5;;;1;;
75342;SDS011;63936;51.006;13.764;2022-12-29T11:52:02;5;;;3;;
75342;SDS011;63936;51.006;13.764;2022-12-29T11:54:02;4;;;2;;
75342;SDS011;63936;51.006;13.764;2022-12-29T11:56:02;5;;;2;;
75342;SDS011;63936;51.006;13.764;2022-12-29T11:58:02;5;;;2;;
75342;SDS011;63936;51.006;13.764;2022-12-29T12:00:03;4;;;2;;
75342;SDS011;63936;51.006;13.764;2022-12-29T12:02:03;5;;;2;;
75342;SDS011;63936;51.006;13.764;2022-12-29T12:04:02;5;;;2;;
75342;SDS011;63936;51.006;13.764;2022-12-29T12:06:02;4;;;2;;
75342;SDS011;63936;51.006;13.764;2022-12-29T12:08:03;4;;;2;;
75342;SDS011;63936;51.006;13.764;2022-12-29T12:10:02;4;;;1;;
75342;SDS011;63936;51.006;13.764;2022-12-29T12:12:01;5;;;2;;
75342;SDS011;63936;51.006;13.764;2022-12-29T12:14:02;5;;;2;;
75342;SDS011;63936;51.006;13.764;2022-12-29T12:16:03;5;;;2;;
75342;SDS011;63936;51.006;13.764;2022-12-29T12:18:02;5;;;2;;
75342;SDS011;63936;51.006;13.764;2022-12-29T12:20:03;5;;;1;;
75342;SDS011;63936;51.006;13.764;2022-12-29T12:22:03;5;;;2;;
75342;SDS011;63936;51.006;13.764;2022-12-29T12:24:10;5;;;2;;
75342;SDS011;63936;51.006;13.764;2022-12-29T12:26:03;4;;;2;;
75342;SDS011;63936;51.006;13.764;2022-12-29T12:28:04;5;;;2;;
75342;SDS011;63936;51.006;13.764;2022-12-29T12:30:03;5;;;2;;
75342;SDS011;63936;51.006;13.764;2022-12-29T12:32:01;4;;;2;;
75342;SDS011;63936;51.006;13.764;2022-12-29T12:34:02;5;;;2;;
75342;SDS011;63936;51.006;13.764;2022-12-29T12:36:09;4;;;1;;
75342;SDS011;63936;51.006;13.764;2022-12-29T12:38:05;4;;;1;;
75342;SDS011;63936;51.006;13.764;2022-12-29T12:40:06;4;;;2;;
75342;SDS011;63936;51.006;13.764;2022-12-29T12:42:05;6;;;2;;
75342;SDS011;63936;51.006;13.764;2022-12-29T12:44:03;5;;;2;;
75342;SDS011;63936;51.006;13.764;2022-12-29T12:46:05;5;;;2;;
75342;SDS011;63936;51.006;13.764;2022-12-29T12:48:05;5;;;2;;
75342;SDS011;63936;51.006;13.764;2022-12-29T12:50:19;4;;;1;;
75342;SDS011;63936;51.006;13.764;2022-12-29T12:52:04;4;;;2;;
75342;SDS011;63936;51.006;13.764;2022-12-29T12:54:05;6;;;2;;
75342;SDS011;63936;51.006;13.764;2022-12-29T12:56:05;5;;;2;;
75342;SDS011;63936;51.006;13.764;2022-12-29T12:58:03;4;;;1;;
75342;SDS011;63936;51.006;13.764;2022-12-29T13:00:03;4;;;1;;
75342;SDS011;63936;51.006;13.764;2022-12-29T13:02:02;4;;;2;;